createdAt,value
2018-02-07T00:01:02.344Z,74.03
2018-02-07T00:03:30.728Z,74.48
2018-02-07T00:05:59.203Z,74.55
2018-02-07T00:08:27.606Z,74.33
2018-02-07T00:10:56.008Z,74.59
2018-02-07T00:13:24.447Z,74.52
2018-02-07T00:15:52.846Z,74.52
2018-02-07T00:18:21.236Z,74.19
2018-02-07T00:20:49.661Z,74.47
2018-02-07T00:23:18.075Z,74.28
2018-02-07T00:25:46.470Z,73.86
2018-02-07T00:28:14.909Z,73.53
2018-02-07T00:30:43.327Z,73.52
2018-02-07T00:33:11.761Z,73.35
2018-02-07T00:35:40.219Z,73.62
2018-02-07T00:38:08.609Z,73.87
2018-02-07T00:40:37.007Z,73.89
2018-02-07T00:43:05.452Z,74.15
2018-02-07T00:45:33.865Z,73.88
2018-02-07T00:48:02.260Z,73.99
2018-02-07T00:50:30.749Z,73.83
2018-02-07T00:52:59.141Z,73.47
2018-02-07T00:55:27.539Z,73.09
2018-02-07T00:57:55.969Z,73.52
2018-02-07T01:00:24.365Z,73.71
2018-02-07T01:02:52.753Z,73.94
2018-02-07T01:05:21.182Z,73.93
2018-02-07T01:07:49.605Z,73.55
2018-02-07T01:10:18.017Z,73.66
2018-02-07T01:12:46.483Z,73.53
2018-02-07T01:15:14.888Z,73.55
2018-02-07T01:17:43.306Z,73.63
2018-02-07T01:20:11.761Z,73.85
2018-02-07T01:22:40.169Z,73.61
2018-02-07T01:25:08.571Z,73.57
2018-02-07T01:27:37.030Z,73.20
2018-02-07T01:30:05.418Z,73.45
2018-02-07T01:32:33.816Z,73.33
2018-02-07T01:35:02.361Z,73.38
2018-02-07T01:37:30.793Z,72.83
2018-02-07T01:39:59.193Z,73.42
2018-02-07T01:42:27.656Z,73.23
2018-02-07T01:44:56.073Z,73.32
2018-02-07T01:47:24.466Z,72.80
2018-02-07T01:49:52.912Z,72.85
2018-02-07T01:52:21.301Z,73.03
2018-02-07T01:54:49.688Z,72.95
2018-02-07T01:57:18.125Z,73.10
2018-02-07T01:59:46.534Z,73.33
2018-02-07T02:02:14.952Z,73.47
2018-02-07T02:04:43.405Z,73.09
2018-02-07T02:07:11.797Z,72.90
2018-02-07T02:09:40.213Z,73.63
2018-02-07T02:12:08.688Z,73.44
2018-02-07T02:14:37.100Z,73.61
2018-02-07T02:17:05.494Z,73.33
2018-02-07T02:19:33.957Z,73.40
2018-02-07T02:22:02.365Z,73.37
2018-02-07T02:24:30.781Z,73.21
2018-02-07T02:26:59.294Z,72.93
2018-02-07T02:29:27.665Z,72.87
2018-02-07T02:31:56.054Z,72.99
2018-02-07T02:34:24.496Z,72.68
2018-02-07T02:36:52.904Z,72.89
2018-02-07T02:39:21.311Z,72.32
2018-02-07T02:41:49.768Z,72.66
2018-02-07T02:44:18.172Z,72.73
2018-02-07T02:46:46.576Z,72.48
2018-02-07T02:49:15.032Z,72.88
2018-02-07T02:51:43.421Z,72.63
2018-02-07T02:54:11.822Z,72.74
2018-02-07T02:56:40.261Z,72.44
2018-02-07T02:59:08.642Z,72.70
2018-02-07T03:01:37.048Z,72.79
2018-02-07T03:04:05.485Z,72.75
2018-02-07T03:06:33.893Z,72.43
2018-02-07T03:09:02.306Z,72.33
2018-02-07T03:11:30.978Z,72.53
2018-02-07T03:13:59.375Z,72.34
2018-02-07T03:16:27.782Z,72.13
2018-02-07T03:18:56.235Z,72.60
2018-02-07T03:21:24.643Z,72.52
2018-02-07T03:23:53.037Z,72.54
2018-02-07T03:26:21.480Z,72.73
2018-02-07T03:28:49.871Z,73.35
2018-02-07T03:31:18.258Z,73.75
2018-02-07T03:33:46.710Z,74.12
2018-02-07T03:36:15.118Z,74.21
2018-02-07T03:38:43.528Z,73.96
2018-02-07T03:41:12.015Z,73.79
2018-02-07T03:43:40.398Z,73.29
2018-02-07T03:46:08.802Z,73.10
2018-02-07T03:48:37.253Z,73.60
2018-02-07T03:51:05.642Z,73.32
2018-02-07T03:53:34.039Z,73.46
2018-02-07T03:56:02.506Z,73.13
2018-02-07T03:58:30.892Z,72.82
2018-02-07T04:00:59.286Z,73.08
2018-02-07T04:03:27.715Z,72.33
2018-02-07T04:05:56.120Z,72.36
2018-02-07T04:08:24.568Z,72.38
2018-02-07T04:10:53.036Z,72.74
2018-02-07T04:13:21.437Z,73.25
2018-02-07T04:15:49.839Z,73.33
2018-02-07T04:18:18.290Z,73.29
2018-02-07T04:20:46.692Z,72.75
2018-02-07T04:23:15.108Z,72.95
2018-02-07T04:25:43.533Z,73.17
2018-02-07T04:28:11.935Z,73.23
2018-02-07T04:30:40.348Z,73.31
2018-02-07T04:33:08.798Z,73.34
2018-02-07T04:35:37.207Z,73.39
2018-02-07T04:38:05.614Z,73.47
2018-02-07T04:40:34.046Z,73.20
2018-02-07T04:43:02.456Z,73.03
2018-02-07T04:45:30.864Z,73.32
2018-02-07T04:47:59.331Z,73.02
2018-02-07T04:50:27.736Z,72.55
2018-02-07T04:52:56.141Z,73.39
2018-02-07T04:55:24.585Z,73.16
2018-02-07T04:57:52.969Z,72.71
2018-02-07T05:00:21.372Z,72.60
2018-02-07T05:02:49.820Z,72.69
2018-02-07T05:05:18.224Z,72.74
2018-02-07T05:07:46.628Z,73.13
2018-02-07T05:10:15.077Z,72.77
2018-02-07T05:12:43.465Z,72.58
2018-02-07T05:15:11.870Z,73.21
2018-02-07T05:17:40.306Z,73.20
2018-02-07T05:20:08.723Z,72.90
2018-02-07T05:22:37.121Z,73.40
2018-02-07T05:25:05.561Z,73.32
2018-02-07T05:27:33.988Z,72.57
2018-02-07T05:30:02.385Z,73.06
2018-02-07T05:32:30.857Z,72.00
2018-02-07T05:34:59.263Z,72.54
2018-02-07T05:37:27.649Z,72.61
2018-02-07T05:39:56.090Z,72.85
2018-02-07T05:42:24.493Z,72.50
2018-02-07T05:44:52.882Z,72.60
2018-02-07T05:47:21.313Z,71.75
2018-02-07T05:49:49.767Z,71.88
2018-02-07T05:52:18.156Z,71.80
2018-02-07T05:54:46.615Z,72.46
2018-02-07T05:57:15.010Z,72.33
2018-02-07T05:59:43.416Z,71.51
2018-02-07T06:02:11.849Z,71.85
2018-02-07T06:04:40.242Z,71.70
2018-02-07T06:07:08.682Z,71.70
2018-02-07T06:09:37.324Z,72.21
2018-02-07T06:12:05.770Z,72.22
2018-02-07T06:14:34.166Z,72.40
2018-02-07T06:17:02.627Z,72.33
2018-02-07T06:19:31.033Z,72.01
2018-02-07T06:21:59.424Z,72.00
2018-02-07T06:24:27.872Z,71.91
2018-02-07T06:26:56.262Z,71.87
2018-02-07T06:29:24.667Z,71.90
2018-02-07T06:31:53.125Z,72.10
2018-02-07T06:34:21.527Z,71.31
2018-02-07T06:36:49.933Z,71.91
2018-02-07T06:39:18.380Z,71.75
2018-02-07T06:41:46.829Z,71.84
2018-02-07T06:44:15.226Z,72.03
2018-02-07T06:46:43.662Z,72.14
2018-02-07T06:49:12.081Z,71.87
2018-02-07T06:51:40.474Z,71.72
2018-02-07T06:54:08.896Z,71.91
2018-02-07T06:56:37.287Z,71.65
2018-02-07T06:59:05.678Z,72.07
2018-02-07T07:01:34.114Z,72.17
2018-02-07T07:04:02.507Z,72.00
2018-02-07T07:06:30.936Z,72.23
2018-02-07T07:08:59.376Z,72.13
2018-02-07T07:11:27.758Z,71.87
2018-02-07T07:13:56.192Z,71.70
2018-02-07T07:16:24.659Z,71.52
2018-02-07T07:18:53.076Z,71.60
2018-02-07T07:21:21.482Z,71.18
2018-02-07T07:23:49.929Z,71.25
2018-02-07T07:26:18.375Z,70.96
2018-02-07T07:28:46.772Z,70.96
2018-02-07T07:31:15.216Z,70.92
2018-02-07T07:33:43.614Z,71.48
2018-02-07T07:36:12.028Z,71.40
2018-02-07T07:38:40.473Z,70.69
2018-02-07T07:41:08.866Z,71.00
2018-02-07T07:43:37.258Z,70.70
2018-02-07T07:46:05.698Z,70.86
2018-02-07T07:48:34.089Z,70.85
2018-02-07T07:51:02.502Z,70.54
2018-02-07T07:53:30.965Z,70.60
2018-02-07T07:55:59.353Z,70.50
2018-02-07T07:58:27.752Z,70.51
2018-02-07T08:00:56.202Z,70.30
2018-02-07T08:03:24.603Z,70.56
2018-02-07T08:05:52.993Z,71.00
2018-02-07T08:08:21.421Z,70.59
2018-02-07T08:10:49.821Z,70.53
2018-02-07T08:13:18.236Z,70.87
2018-02-07T08:15:46.681Z,70.86
2018-02-07T08:18:15.087Z,71.07
2018-02-07T08:20:43.492Z,70.87
2018-02-07T08:23:11.941Z,71.23
2018-02-07T08:25:40.353Z,71.21
2018-02-07T08:28:08.741Z,71.53
2018-02-07T08:30:37.209Z,71.37
2018-02-07T08:33:05.618Z,71.70
2018-02-07T08:35:34.020Z,72.01
2018-02-07T08:38:02.461Z,71.83
2018-02-07T08:40:30.869Z,71.95
2018-02-07T08:42:59.309Z,72.08
2018-02-07T08:45:27.762Z,71.92
2018-02-07T08:47:56.150Z,71.57
2018-02-07T08:50:24.552Z,71.73
2018-02-07T08:52:53.016Z,72.07
2018-02-07T08:55:21.423Z,72.09
2018-02-07T08:57:49.824Z,71.91
2018-02-07T09:00:18.268Z,71.59
2018-02-07T09:02:46.666Z,71.68
2018-02-07T09:05:15.053Z,71.58
2018-02-07T09:07:43.507Z,71.54
2018-02-07T09:10:11.902Z,71.95
2018-02-07T09:12:40.308Z,71.68
2018-02-07T09:15:08.750Z,71.49
2018-02-07T09:17:37.142Z,71.30
2018-02-07T09:20:05.552Z,71.54
2018-02-07T09:22:33.985Z,71.35
2018-02-07T09:25:02.393Z,71.50
2018-02-07T09:27:30.786Z,71.59
2018-02-07T09:29:59.241Z,71.52
2018-02-07T09:32:27.647Z,71.05
2018-02-07T09:34:56.053Z,71.37
2018-02-07T09:37:24.499Z,71.46
2018-02-07T09:39:52.891Z,71.50
2018-02-07T09:42:21.290Z,71.25
2018-02-07T09:44:49.754Z,71.49
2018-02-07T09:47:18.154Z,70.96
2018-02-07T09:49:46.545Z,71.10
2018-02-07T09:52:14.991Z,71.35
2018-02-07T09:54:43.390Z,71.01
2018-02-07T09:57:11.785Z,71.12
2018-02-07T09:59:40.235Z,70.93
2018-02-07T10:02:09.334Z,70.96
2018-02-07T10:04:37.763Z,70.74
2018-02-07T10:07:06.218Z,70.73
2018-02-07T10:09:34.612Z,70.62
2018-02-07T10:12:03.021Z,70.40
2018-02-07T10:14:31.478Z,70.17
2018-02-07T10:16:59.878Z,69.91
2018-02-07T10:19:28.266Z,70.29
2018-02-07T10:21:56.732Z,69.30
2018-02-07T10:24:25.120Z,69.75
2018-02-07T10:26:53.532Z,69.79
2018-02-07T10:29:22.001Z,69.46
2018-02-07T10:31:50.403Z,68.71
2018-02-07T10:34:18.804Z,68.40
2018-02-07T10:36:47.241Z,68.31
2018-02-07T10:39:15.623Z,68.57
2018-02-07T10:41:44.017Z,68.27
2018-02-07T10:44:12.505Z,67.50
2018-02-07T10:46:40.907Z,67.65
2018-02-07T10:49:09.298Z,67.22
2018-02-07T10:51:37.725Z,67.76
2018-02-07T10:54:06.128Z,67.28
2018-02-07T10:56:34.521Z,66.12
2018-02-07T10:59:02.988Z,66.09
2018-02-07T11:01:31.396Z,65.44
2018-02-07T11:03:59.805Z,64.55
2018-02-07T11:06:28.252Z,64.17
2018-02-07T11:08:56.660Z,62.34
2018-02-07T11:11:25.072Z,62.69
2018-02-07T11:13:53.633Z,63.39
2018-02-07T11:16:22.040Z,62.61
2018-02-07T11:18:50.444Z,63.02
2018-02-07T11:21:18.892Z,63.76
2018-02-07T11:23:47.299Z,63.13
2018-02-07T11:26:15.698Z,62.67
2018-02-07T11:28:44.147Z,63.70
2018-02-07T11:31:12.542Z,62.62
2018-02-07T11:33:40.937Z,62.95
2018-02-07T11:36:09.388Z,63.62
2018-02-07T11:38:37.790Z,63.63
2018-02-07T11:41:06.204Z,63.62
2018-02-07T11:43:34.645Z,63.96
2018-02-07T11:46:03.034Z,64.11
2018-02-07T11:48:31.435Z,63.56
2018-02-07T11:50:59.876Z,63.40
2018-02-07T11:53:28.269Z,63.14
2018-02-07T11:55:56.663Z,62.68
2018-02-07T11:58:25.099Z,62.72
2018-02-07T12:00:53.504Z,62.65
2018-02-07T12:03:21.918Z,62.57
2018-02-07T12:05:50.353Z,62.80
2018-02-07T12:08:18.764Z,63.15
2018-02-07T12:10:47.170Z,62.62
2018-02-07T12:13:15.627Z,62.15
2018-02-07T12:15:44.030Z,60.90
2018-02-07T12:18:12.444Z,61.10
2018-02-07T12:20:40.906Z,60.69
2018-02-07T12:23:09.294Z,60.10
2018-02-07T12:25:37.709Z,60.79
2018-02-07T12:28:06.188Z,60.48
2018-02-07T12:30:34.672Z,60.44
2018-02-07T12:33:03.083Z,60.63
2018-02-07T12:35:31.540Z,60.71
2018-02-07T12:37:59.978Z,61.25
2018-02-07T12:40:28.382Z,61.33
2018-02-07T12:42:56.819Z,60.98
2018-02-07T12:45:25.213Z,60.70
2018-02-07T12:47:53.630Z,61.41
2018-02-07T12:50:22.090Z,60.31
2018-02-07T12:52:50.489Z,60.48
2018-02-07T12:55:18.882Z,60.22
2018-02-07T12:57:47.323Z,60.19
2018-02-07T13:00:15.728Z,59.13
2018-02-07T13:02:44.118Z,58.46
2018-02-07T13:05:12.563Z,59.00
2018-02-07T13:07:41.000Z,59.08
2018-02-07T13:10:09.415Z,58.84
2018-02-07T13:12:37.884Z,59.01
2018-02-07T13:15:06.292Z,58.44
2018-02-07T13:17:34.700Z,58.15
2018-02-07T13:20:03.165Z,57.89
2018-02-07T13:22:31.588Z,57.51
2018-02-07T13:24:59.982Z,57.37
2018-02-07T13:27:28.434Z,59.13
2018-02-07T13:29:56.872Z,57.10
2018-02-07T13:32:25.272Z,57.87
2018-02-07T13:34:53.793Z,57.78
2018-02-07T13:37:22.192Z,57.82
2018-02-07T13:39:50.593Z,58.52
2018-02-07T13:42:19.044Z,57.59
2018-02-07T13:44:47.447Z,58.26
2018-02-07T13:47:15.841Z,58.54
2018-02-07T13:49:44.290Z,57.87
2018-02-07T13:52:12.714Z,57.55
2018-02-07T13:54:41.123Z,58.46
2018-02-07T13:57:09.558Z,57.52
2018-02-07T13:59:37.949Z,56.80
2018-02-07T14:02:06.368Z,56.53
2018-02-07T14:04:34.829Z,56.92
2018-02-07T14:07:03.256Z,57.07
2018-02-07T14:09:31.670Z,57.11
2018-02-07T14:12:00.135Z,56.63
2018-02-07T14:14:28.570Z,57.00
2018-02-07T14:16:56.984Z,57.46
2018-02-07T14:19:25.440Z,56.04
2018-02-07T14:21:53.861Z,55.78
2018-02-07T14:24:22.281Z,55.21
2018-02-07T14:26:50.737Z,54.83
2018-02-07T14:29:19.152Z,53.92
2018-02-07T14:31:47.560Z,54.45
2018-02-07T14:34:16.062Z,53.80
2018-02-07T14:36:44.478Z,54.56
2018-02-07T14:39:12.873Z,54.33
2018-02-07T14:41:41.325Z,53.51
2018-02-07T14:44:09.736Z,53.84
2018-02-07T14:46:38.130Z,53.57
2018-02-07T14:49:06.811Z,53.22
2018-02-07T14:51:35.184Z,54.00
2018-02-07T14:54:03.585Z,53.23
2018-02-07T14:56:32.033Z,52.52
2018-02-07T14:59:00.437Z,53.33
2018-02-07T15:01:28.848Z,53.18
2018-02-07T15:03:57.300Z,52.25
2018-02-07T15:06:25.713Z,52.29
2018-02-07T15:08:54.113Z,52.36
2018-02-07T15:11:22.585Z,52.70
2018-02-07T15:13:51.000Z,52.73
2018-02-07T15:16:19.385Z,52.71
2018-02-07T15:18:47.841Z,52.74
2018-02-07T15:21:16.229Z,52.44
2018-02-07T15:23:44.623Z,52.33
2018-02-07T15:26:13.073Z,52.27
2018-02-07T15:28:41.479Z,52.32
2018-02-07T15:31:09.909Z,52.31
2018-02-07T15:33:38.361Z,52.02
2018-02-07T15:36:06.746Z,51.96
2018-02-07T15:38:35.180Z,52.50
2018-02-07T15:41:03.625Z,52.87
2018-02-07T15:43:32.037Z,53.73
2018-02-07T15:46:00.440Z,54.16
2018-02-07T15:48:28.890Z,55.51
2018-02-07T15:50:57.306Z,56.77
2018-02-07T15:53:25.703Z,56.81
2018-02-07T15:55:54.166Z,57.50
2018-02-07T15:58:22.604Z,57.56
2018-02-07T16:00:51.009Z,57.92
2018-02-07T16:03:19.788Z,58.49
2018-02-07T16:05:48.208Z,59.15
2018-02-07T16:08:16.610Z,59.34
2018-02-07T16:10:45.043Z,59.50
2018-02-07T16:13:13.456Z,59.67
2018-02-07T16:18:11.969Z,60.15
2018-02-07T16:20:40.375Z,60.40
2018-02-07T16:23:08.783Z,60.07
2018-02-07T16:25:37.489Z,60.18
2018-02-07T16:28:05.909Z,60.59
2018-02-07T16:30:34.322Z,61.11
2018-02-07T16:33:02.775Z,61.10
2018-02-07T16:35:31.181Z,61.31
2018-02-07T16:37:59.589Z,61.09
2018-02-07T16:40:28.052Z,61.28
2018-02-07T16:42:56.462Z,61.58
2018-02-07T16:45:24.857Z,61.62
2018-02-07T16:47:53.302Z,61.67
2018-02-07T16:50:21.721Z,61.71
2018-02-07T16:52:50.118Z,61.97
2018-02-07T16:55:18.590Z,62.11
2018-02-07T16:57:47.004Z,62.09
2018-02-07T17:00:15.413Z,61.92
2018-02-07T17:02:43.850Z,62.15
2018-02-07T17:05:12.249Z,62.48
2018-02-07T17:07:40.633Z,62.67
2018-02-07T17:10:09.081Z,62.90
2018-02-07T17:12:37.491Z,63.02
2018-02-07T17:15:05.886Z,63.31
2018-02-07T17:17:34.347Z,63.53
2018-02-07T17:20:02.777Z,63.54
2018-02-07T17:22:31.164Z,63.74
2018-02-07T17:24:59.627Z,63.84
2018-02-07T17:27:28.014Z,64.18
2018-02-07T17:29:56.409Z,64.11
2018-02-07T17:32:24.845Z,64.12
2018-02-07T17:34:54.153Z,64.27
2018-02-07T17:37:22.552Z,64.29
2018-02-07T17:39:51.001Z,64.68
2018-02-07T17:42:19.393Z,64.64
2018-02-07T17:44:47.796Z,65.95
2018-02-07T17:47:16.277Z,65.87
2018-02-07T17:49:44.679Z,66.04
2018-02-07T17:52:13.069Z,65.68
2018-02-07T17:54:41.524Z,65.63
2018-02-07T17:57:09.914Z,65.42
2018-02-07T17:59:38.316Z,65.49
2018-02-07T18:02:06.788Z,65.77
2018-02-07T18:04:35.187Z,66.17
2018-02-07T18:07:03.597Z,66.25
2018-02-07T18:09:32.037Z,66.48
2018-02-07T18:12:00.426Z,66.60
2018-02-07T18:14:28.831Z,66.87
2018-02-07T18:16:57.312Z,67.01
2018-02-07T18:19:25.716Z,67.79
2018-02-07T18:21:54.102Z,67.17
2018-02-07T18:24:22.541Z,66.99
2018-02-07T18:26:50.945Z,67.26
2018-02-07T18:29:19.333Z,67.11
2018-02-07T18:31:47.780Z,67.16
2018-02-07T18:34:16.172Z,67.49
2018-02-07T18:36:44.557Z,67.71
2018-02-07T18:39:13.018Z,67.70
2018-02-07T18:41:41.425Z,67.92
2018-02-07T18:44:09.818Z,68.29
2018-02-07T18:46:38.268Z,68.77
2018-02-07T18:49:06.676Z,68.85
2018-02-07T18:51:35.065Z,68.92
2018-02-07T18:54:03.528Z,68.92
2018-02-07T18:56:31.942Z,68.93
2018-02-07T18:59:00.333Z,68.93
2018-02-07T19:01:28.795Z,68.83
2018-02-07T19:03:57.208Z,69.26
2018-02-07T19:06:25.609Z,69.19
2018-02-07T19:08:54.064Z,69.40
2018-02-07T19:11:22.467Z,69.44
2018-02-07T19:13:50.857Z,69.84
2018-02-07T19:16:19.293Z,69.63
2018-02-07T19:18:47.709Z,69.86
2018-02-07T19:21:16.097Z,69.88
2018-02-07T19:23:44.696Z,69.77
2018-02-07T19:26:13.113Z,69.95
2018-02-07T19:28:41.521Z,69.73
2018-02-07T19:31:09.988Z,69.79
2018-02-07T19:33:38.381Z,70.02
2018-02-07T19:36:06.788Z,69.97
2018-02-07T19:38:35.244Z,69.86
2018-02-07T19:41:03.646Z,70.15
2018-02-07T19:43:32.053Z,70.31
2018-02-07T19:46:00.502Z,70.25
2018-02-07T19:48:28.919Z,70.34
2018-02-07T19:50:57.327Z,70.58
2018-02-07T19:53:25.770Z,70.58
2018-02-07T19:55:54.215Z,70.65
2018-02-07T19:58:22.628Z,70.78
2018-02-07T20:00:51.081Z,70.59
2018-02-07T20:03:19.500Z,71.05
2018-02-07T20:05:47.906Z,70.81
2018-02-07T20:08:16.356Z,71.31
2018-02-07T20:10:44.757Z,71.06
2018-02-07T20:13:13.167Z,70.95
2018-02-07T20:15:41.620Z,71.04
2018-02-07T20:18:10.044Z,71.17
2018-02-07T20:20:38.433Z,71.14
2018-02-07T20:23:06.889Z,71.21
2018-02-07T20:25:35.281Z,71.48
2018-02-07T20:28:03.692Z,71.37
2018-02-07T20:30:32.150Z,71.16
2018-02-07T20:33:00.552Z,71.59
2018-02-07T20:35:28.982Z,71.99
2018-02-07T20:37:57.431Z,71.63
2018-02-07T20:40:25.840Z,71.82
2018-02-07T20:42:54.228Z,71.49
2018-02-07T20:45:22.679Z,71.91
2018-02-07T20:47:51.077Z,71.88
2018-02-07T20:50:19.480Z,71.85
2018-02-07T20:52:47.951Z,71.96
2018-02-07T20:55:16.345Z,72.35
2018-02-07T20:57:44.759Z,72.72
2018-02-07T21:00:13.219Z,72.96
2018-02-07T21:02:41.621Z,72.13
2018-02-07T21:05:10.014Z,72.46
2018-02-07T21:07:38.472Z,72.76
2018-02-07T21:10:07.036Z,72.62
2018-02-07T21:12:35.452Z,72.83
2018-02-07T21:15:03.929Z,73.37
2018-02-07T21:17:32.325Z,73.69
2018-02-07T21:20:00.732Z,73.76
2018-02-07T21:22:29.169Z,73.64
2018-02-07T21:24:57.575Z,73.13
2018-02-07T21:27:25.973Z,72.94
2018-02-07T21:29:54.406Z,73.73
2018-02-07T21:32:22.819Z,73.46
2018-02-07T21:34:51.209Z,73.00
2018-02-07T21:37:19.664Z,72.96
2018-02-07T21:39:48.080Z,73.65
2018-02-07T21:42:16.504Z,73.50
2018-02-07T21:44:44.998Z,73.19
2018-02-07T21:47:13.407Z,73.39
2018-02-07T21:49:41.801Z,73.31
2018-02-07T21:52:10.248Z,73.04
2018-02-07T21:54:38.650Z,73.03
2018-02-07T21:57:07.049Z,73.55
2018-02-07T21:59:35.492Z,73.89
2018-02-07T22:02:03.901Z,73.94
2018-02-07T22:04:32.312Z,73.74
2018-02-07T22:07:00.769Z,73.28
2018-02-07T22:09:29.217Z,73.52
2018-02-07T22:11:57.612Z,74.01
2018-02-07T22:14:26.079Z,74.71
2018-02-07T22:16:54.491Z,74.34
2018-02-07T22:19:22.899Z,74.15
2018-02-07T22:21:51.333Z,74.14
2018-02-07T22:24:19.722Z,74.10
2018-02-07T22:26:48.129Z,74.27
2018-02-07T22:29:16.578Z,74.18
2018-02-07T22:31:44.975Z,73.92
2018-02-07T22:34:13.365Z,73.96
2018-02-07T22:36:41.826Z,74.01
2018-02-07T22:39:10.221Z,73.86
2018-02-07T22:41:38.609Z,73.64
2018-02-07T22:44:07.068Z,73.56
2018-02-07T22:46:35.479Z,73.50
2018-02-07T22:49:03.904Z,73.58
2018-02-07T22:51:32.356Z,73.65
2018-02-07T22:54:00.762Z,73.89
2018-02-07T22:56:29.173Z,73.93
2018-02-07T22:58:57.626Z,73.62
2018-02-07T23:01:26.040Z,73.65
2018-02-07T23:03:54.448Z,73.46
2018-02-07T23:06:22.920Z,73.85
2018-02-07T23:08:51.337Z,75.48
2018-02-07T23:11:19.739Z,75.47
2018-02-07T23:13:48.202Z,76.05
2018-02-07T23:16:16.672Z,76.11
2018-02-07T23:18:45.074Z,75.68
2018-02-07T23:21:13.558Z,75.52
2018-02-07T23:23:41.968Z,75.65
2018-02-07T23:26:10.369Z,75.71
2018-02-07T23:28:38.831Z,76.46
2018-02-07T23:31:07.230Z,76.56
2018-02-07T23:33:35.630Z,76.52
2018-02-07T23:36:04.085Z,76.71
2018-02-07T23:38:32.501Z,76.25
2018-02-07T23:41:00.910Z,76.14
2018-02-07T23:43:29.367Z,76.02
2018-02-07T23:45:57.813Z,76.37
2018-02-07T23:48:26.210Z,76.83
2018-02-07T23:50:54.677Z,76.43
2018-02-07T23:53:23.088Z,76.92
2018-02-07T23:55:51.490Z,76.45
2018-02-07T23:58:19.938Z,76.74
